sensor_id;sensor_type;location;lat;lon;timestamp;pressure;altitude;pressure_sealevel;temperature;humidity
75247;BME280;63844;50.042;19.224;2024-01-11T00:01:16;100257.96;;;-12.33;89.92
75247;BME280;63844;50.042;19.224;2024-01-11T00:02:52;100255.87;;;-12.34;90.59
75247;BME280;63844;50.042;19.224;2024-01-11T00:04:29;100256.55;;;-12.38;90.45
75247;BME280;63844;50.042;19.224;2024-01-11T00:06:05;100251.02;;;-12.40;89.96
75247;BME280;63844;50.042;19.224;2024-01-11T00:07:41;100244.81;;;-12.45;89.69
75247;BME280;63844;50.042;19.224;2024-01-11T00:09:18;100238.69;;;-12.49;89.81
75247;BME280;63844;50.042;19.224;2024-01-11T00:10:54;100236.41;;;-12.50;89.98
75247;BME280;63844;50.042;19.224;2024-01-11T00:12:31;100233.19;;;-12.50;90.35
75247;BME280;63844;50.042;19.224;2024-01-11T00:14:08;100233.16;;;-12.50;91.19
75247;BME280;63844;50.042;19.224;2024-01-11T00:15:44;100227.94;;;-12.52;91.35
75247;BME280;63844;50.042;19.224;2024-01-11T00:17:20;100225.02;;;-12.53;91.34
75247;BME280;63844;50.042;19.224;2024-01-11T00:18:57;100222.58;;;-12.54;90.82
75247;BME280;63844;50.042;19.224;2024-01-11T00:20:34;100220.63;;;-12.55;90.96
75247;BME280;63844;50.042;19.224;2024-01-11T00:22:11;100221.29;;;-12.56;91.04
75247;BME280;63844;50.042;19.224;2024-01-11T00:23:48;100222.41;;;-12.58;91.44
75247;BME280;63844;50.042;19.224;2024-01-11T00:25:25;100227.92;;;-12.60;91.44
75247;BME280;63844;50.042;19.224;2024-01-11T00:27:01;100232.77;;;-12.62;90.66
75247;BME280;63844;50.042;19.224;2024-01-11T00:28:38;100231.75;;;-12.62;90.60
75247;BME280;63844;50.042;19.224;2024-01-11T00:30:14;100228.30;;;-12.63;90.40
75247;BME280;63844;50.042;19.224;2024-01-11T00:31:50;100228.21;;;-12.65;90.39
75247;BME280;63844;50.042;19.224;2024-01-11T00:33:27;100230.70;;;-12.67;90.15
75247;BME280;63844;50.042;19.224;2024-01-11T00:35:04;100227.98;;;-12.67;90.05
75247;BME280;63844;50.042;19.224;2024-01-11T00:36:40;100227.78;;;-12.67;90.05
75247;BME280;63844;50.042;19.224;2024-01-11T00:38:17;100223.84;;;-12.71;89.80
75247;BME280;63844;50.042;19.224;2024-01-11T00:39:53;100217.26;;;-12.77;89.78
75247;BME280;63844;50.042;19.224;2024-01-11T00:41:30;100211.66;;;-12.80;89.51
75247;BME280;63844;50.042;19.224;2024-01-11T00:43:06;100210.58;;;-12.81;89.80
75247;BME280;63844;50.042;19.224;2024-01-11T00:44:43;100207.34;;;-12.81;90.37
75247;BME280;63844;50.042;19.224;2024-01-11T00:46:21;100202.45;;;-12.79;90.54
75247;BME280;63844;50.042;19.224;2024-01-11T00:47:57;100204.05;;;-12.79;90.81
75247;BME280;63844;50.042;19.224;2024-01-11T00:49:34;100202.42;;;-12.81;91.04
75247;BME280;63844;50.042;19.224;2024-01-11T00:51:10;100203.11;;;-12.81;91.44
75247;BME280;63844;50.042;19.224;2024-01-11T00:52:46;100203.96;;;-12.81;90.75
75247;BME280;63844;50.042;19.224;2024-01-11T00:54:23;100199.33;;;-12.81;91.12
75247;BME280;63844;50.042;19.224;2024-01-11T00:56:01;100195.89;;;-12.82;91.13
75247;BME280;63844;50.042;19.224;2024-01-11T00:57:37;100193.96;;;-12.83;91.29
75247;BME280;63844;50.042;19.224;2024-01-11T00:59:13;100190.70;;;-12.83;91.61
75247;BME280;63844;50.042;19.224;2024-01-11T01:00:50;100194.40;;;-12.85;91.90
75247;BME280;63844;50.042;19.224;2024-01-11T01:02:28;100191.75;;;-12.87;91.54
75247;BME280;63844;50.042;19.224;2024-01-11T01:04:05;100191.75;;;-12.87;91.01
75247;BME280;63844;50.042;19.224;2024-01-11T01:05:42;100193.72;;;-12.89;91.35
75247;BME280;63844;50.042;19.224;2024-01-11T01:07:18;100192.66;;;-12.90;91.39
75247;BME280;63844;50.042;19.224;2024-01-11T01:08:55;100194.55;;;-12.89;91.12
75247;BME280;63844;50.042;19.224;2024-01-11T01:10:31;100192.54;;;-12.88;90.46
75247;BME280;63844;50.042;19.224;2024-01-11T01:12:08;100194.02;;;-12.89;91.02
75247;BME280;63844;50.042;19.224;2024-01-11T01:13:44;100195.08;;;-12.92;91.55
75247;BME280;63844;50.042;19.224;2024-01-11T01:15:21;100197.98;;;-12.96;91.62
75247;BME280;63844;50.042;19.224;2024-01-11T01:16:57;100200.27;;;-12.98;90.64
75247;BME280;63844;50.042;19.224;2024-01-11T01:18:33;100202.65;;;-12.98;90.15
75247;BME280;63844;50.042;19.224;2024-01-11T01:20:10;100207.69;;;-12.99;90.26
75247;BME280;63844;50.042;19.224;2024-01-11T01:21:47;100206.19;;;-12.99;89.42
75247;BME280;63844;50.042;19.224;2024-01-11T01:23:23;100210.31;;;-12.98;90.13
75247;BME280;63844;50.042;19.224;2024-01-11T01:25:00;100213.88;;;-12.98;89.62
75247;BME280;63844;50.042;19.224;2024-01-11T01:26:36;100213.75;;;-12.97;89.89
75247;BME280;63844;50.042;19.224;2024-01-11T01:28:13;100205.21;;;-12.98;89.77
75247;BME280;63844;50.042;19.224;2024-01-11T01:29:49;100203.40;;;-12.96;89.80
75247;BME280;63844;50.042;19.224;2024-01-11T01:31:25;100196.96;;;-12.96;90.20
75247;BME280;63844;50.042;19.224;2024-01-11T01:33:02;100198.46;;;-12.96;90.26
75247;BME280;63844;50.042;19.224;2024-01-11T01:34:39;100192.66;;;-12.97;90.51
75247;BME280;63844;50.042;19.224;2024-01-11T01:36:15;100186.83;;;-12.97;90.68
75247;BME280;63844;50.042;19.224;2024-01-11T01:37:51;100186.19;;;-12.97;90.83
75247;BME280;63844;50.042;19.224;2024-01-11T01:39:28;100182.13;;;-12.96;90.88
75247;BME280;63844;50.042;19.224;2024-01-11T01:41:04;100183.20;;;-12.95;90.64
75247;BME280;63844;50.042;19.224;2024-01-11T01:42:45;100177.86;;;-12.92;90.68
75247;BME280;63844;50.042;19.224;2024-01-11T01:44:21;100173.35;;;-12.91;91.08
75247;BME280;63844;50.042;19.224;2024-01-11T01:45:58;100167.09;;;-12.93;90.65
75247;BME280;63844;50.042;19.224;2024-01-11T01:47:36;100165.29;;;-12.92;90.89
75247;BME280;63844;50.042;19.224;2024-01-11T01:49:13;100160.96;;;-12.90;91.25
75247;BME280;63844;50.042;19.224;2024-01-11T01:50:49;100165.31;;;-12.84;91.41
75247;BME280;63844;50.042;19.224;2024-01-11T01:52:29;100167.65;;;-12.81;91.46
75247;BME280;63844;50.042;19.224;2024-01-11T01:54:06;100168.19;;;-12.77;91.54
75247;BME280;63844;50.042;19.224;2024-01-11T01:55:42;100168.20;;;-12.73;91.77
75247;BME280;63844;50.042;19.224;2024-01-11T01:57:19;100171.07;;;-12.66;92.01
75247;BME280;63844;50.042;19.224;2024-01-11T01:58:58;100164.42;;;-12.66;91.71
75247;BME280;63844;50.042;19.224;2024-01-11T02:00:35;100166.64;;;-12.66;91.56
75247;BME280;63844;50.042;19.224;2024-01-11T02:02:12;100167.27;;;-12.67;91.46
75247;BME280;63844;50.042;19.224;2024-01-11T02:03:52;100168.67;;;-12.66;91.54
75247;BME280;63844;50.042;19.224;2024-01-11T02:05:30;100167.59;;;-12.63;91.32
75247;BME280;63844;50.042;19.224;2024-01-11T02:07:07;100173.14;;;-12.62;91.08
75247;BME280;63844;50.042;19.224;2024-01-11T02:08:44;100170.67;;;-12.59;90.74
75247;BME280;63844;50.042;19.224;2024-01-11T02:10:22;100170.15;;;-12.60;91.22
75247;BME280;63844;50.042;19.224;2024-01-11T02:12:00;100164.43;;;-12.62;90.89
75247;BME280;63844;50.042;19.224;2024-01-11T02:13:37;100161.40;;;-12.61;90.78
75247;BME280;63844;50.042;19.224;2024-01-11T02:15:14;100160.52;;;-12.62;91.09
75247;BME280;63844;50.042;19.224;2024-01-11T02:16:51;100163.41;;;-12.62;90.95
75247;BME280;63844;50.042;19.224;2024-01-11T02:18:27;100166.80;;;-12.62;91.10
75247;BME280;63844;50.042;19.224;2024-01-11T02:20:04;100167.98;;;-12.62;91.01
75247;BME280;63844;50.042;19.224;2024-01-11T02:21:42;100163.90;;;-12.62;90.53
75247;BME280;63844;50.042;19.224;2024-01-11T02:23:21;100162.55;;;-12.62;90.32
75247;BME280;63844;50.042;19.224;2024-01-11T02:25:00;100160.63;;;-12.63;90.83
75247;BME280;63844;50.042;19.224;2024-01-11T02:26:37;100160.59;;;-12.64;90.97
75247;BME280;63844;50.042;19.224;2024-01-11T02:28:33;100160.96;;;-12.67;91.21
75247;BME280;63844;50.042;19.224;2024-01-11T02:30:10;100161.14;;;-12.67;90.94
75247;BME280;63844;50.042;19.224;2024-01-11T02:31:47;100165.71;;;-12.67;91.06
75247;BME280;63844;50.042;19.224;2024-01-11T02:33:24;100164.95;;;-12.69;90.83
75247;BME280;63844;50.042;19.224;2024-01-11T02:35:00;100158.14;;;-12.73;90.38
75247;BME280;63844;50.042;19.224;2024-01-11T02:36:37;100158.40;;;-12.74;89.95
75247;BME280;63844;50.042;19.224;2024-01-11T02:38:14;100151.04;;;-12.75;90.21
75247;BME280;63844;50.042;19.224;2024-01-11T02:39:50;100152.73;;;-12.76;90.64
75247;BME280;63844;50.042;19.224;2024-01-11T02:41:27;100152.20;;;-12.76;91.17
75247;BME280;63844;50.042;19.224;2024-01-11T02:43:10;100150.20;;;-12.78;91.08
75247;BME280;63844;50.042;19.224;2024-01-11T02:44:47;100151.77;;;-12.78;90.87
75247;BME280;63844;50.042;19.224;2024-01-11T02:46:23;100149.02;;;-12.79;90.42
75247;BME280;63844;50.042;19.224;2024-01-11T02:47:59;100147.98;;;-12.78;90.34
75247;BME280;63844;50.042;19.224;2024-01-11T02:49:36;100144.01;;;-12.80;90.49
75247;BME280;63844;50.042;19.224;2024-01-11T02:51:12;100139.41;;;-12.80;90.41
75247;BME280;63844;50.042;19.224;2024-01-11T02:52:49;100136.48;;;-12.80;90.53
75247;BME280;63844;50.042;19.224;2024-01-11T02:54:25;100136.48;;;-12.80;90.77
75247;BME280;63844;50.042;19.224;2024-01-11T02:56:02;100135.66;;;-12.79;91.08
75247;BME280;63844;50.042;19.224;2024-01-11T02:57:38;100139.98;;;-12.78;91.07
75247;BME280;63844;50.042;19.224;2024-01-11T02:59:15;100137.38;;;-12.79;90.91
75247;BME280;63844;50.042;19.224;2024-01-11T03:00:51;100136.61;;;-12.77;91.28
75247;BME280;63844;50.042;19.224;2024-01-11T03:02:28;100141.88;;;-12.74;91.27
75247;BME280;63844;50.042;19.224;2024-01-11T03:04:05;100145.73;;;-12.72;91.36
75247;BME280;63844;50.042;19.224;2024-01-11T03:05:41;100153.16;;;-12.70;91.10
75247;BME280;63844;50.042;19.224;2024-01-11T03:07:18;100153.39;;;-12.68;90.93
75247;BME280;63844;50.042;19.224;2024-01-11T03:08:55;100151.77;;;-12.67;90.89
75247;BME280;63844;50.042;19.224;2024-01-11T03:10:32;100149.38;;;-12.67;90.74
75247;BME280;63844;50.042;19.224;2024-01-11T03:12:08;100148.44;;;-12.68;90.35
75247;BME280;63844;50.042;19.224;2024-01-11T03:13:44;100147.86;;;-12.70;90.47
75247;BME280;63844;50.042;19.224;2024-01-11T03:15:21;100156.75;;;-12.70;90.36
75247;BME280;63844;50.042;19.224;2024-01-11T03:16:57;100158.42;;;-12.70;90.68
75247;BME280;63844;50.042;19.224;2024-01-11T03:18:34;100157.56;;;-12.74;90.60
75247;BME280;63844;50.042;19.224;2024-01-11T03:20:10;100156.77;;;-12.73;90.91
75247;BME280;63844;50.042;19.224;2024-01-11T03:21:47;100158.86;;;-12.72;90.89
75247;BME280;63844;50.042;19.224;2024-01-11T03:23:24;100159.12;;;-12.70;91.06
75247;BME280;63844;50.042;19.224;2024-01-11T03:25:00;100153.55;;;-12.69;91.38
75247;BME280;63844;50.042;19.224;2024-01-11T03:26:36;100147.64;;;-12.68;92.01
75247;BME280;63844;50.042;19.224;2024-01-11T03:28:13;100137.10;;;-12.63;92.59
75247;BME280;63844;50.042;19.224;2024-01-11T03:29:49;100131.70;;;-12.62;92.73
75247;BME280;63844;50.042;19.224;2024-01-11T03:31:26;100124.42;;;-12.60;92.39
75247;BME280;63844;50.042;19.224;2024-01-11T03:33:03;100127.97;;;-12.58;92.44
75247;BME280;63844;50.042;19.224;2024-01-11T03:34:39;100130.94;;;-12.48;92.74
75247;BME280;63844;50.042;19.224;2024-01-11T03:36:16;100130.86;;;-12.42;92.95
75247;BME280;63844;50.042;19.224;2024-01-11T03:37:52;100129.15;;;-12.38;92.53
75247;BME280;63844;50.042;19.224;2024-01-11T03:39:29;100123.95;;;-12.36;92.66
75247;BME280;63844;50.042;19.224;2024-01-11T03:41:09;100124.59;;;-12.33;92.60
75247;BME280;63844;50.042;19.224;2024-01-11T03:42:46;100116.36;;;-12.30;92.67
75247;BME280;63844;50.042;19.224;2024-01-11T03:44:22;100113.30;;;-12.27;92.56
75247;BME280;63844;50.042;19.224;2024-01-11T03:45:59;100111.02;;;-12.24;92.74
75247;BME280;63844;50.042;19.224;2024-01-11T03:47:35;100106.13;;;-12.19;92.77
75247;BME280;63844;50.042;19.224;2024-01-11T03:49:12;100104.13;;;-12.13;93.07
75247;BME280;63844;50.042;19.224;2024-01-11T03:50:48;100099.52;;;-12.05;93.05
75247;BME280;63844;50.042;19.224;2024-01-11T03:52:25;100092.44;;;-11.99;93.09
75247;BME280;63844;50.042;19.224;2024-01-11T03:54:02;100093.15;;;-11.90;92.87
75247;BME280;63844;50.042;19.224;2024-01-11T03:55:38;100088.79;;;-11.83;93.03
75247;BME280;63844;50.042;19.224;2024-01-11T03:57:15;100082.48;;;-11.75;92.93
75247;BME280;63844;50.042;19.224;2024-01-11T03:58:52;100080.52;;;-11.68;93.35
75247;BME280;63844;50.042;19.224;2024-01-11T04:00:29;100082.16;;;-11.61;93.42
75247;BME280;63844;50.042;19.224;2024-01-11T04:02:05;100092.02;;;-11.54;93.21
75247;BME280;63844;50.042;19.224;2024-01-11T04:03:42;100099.61;;;-11.48;93.65
75247;BME280;63844;50.042;19.224;2024-01-11T04:05:18;100107.45;;;-11.44;93.89
75247;BME280;63844;50.042;19.224;2024-01-11T04:06:55;100107.11;;;-11.44;93.79
75247;BME280;63844;50.042;19.224;2024-01-11T04:08:31;100106.11;;;-11.43;93.71
75247;BME280;63844;50.042;19.224;2024-01-11T04:10:08;100101.52;;;-11.46;93.25
75247;BME280;63844;50.042;19.224;2024-01-11T04:11:47;100105.13;;;-11.50;92.69
75247;BME280;63844;50.042;19.224;2024-01-11T04:13:24;100109.61;;;-11.54;92.72
75247;BME280;63844;50.042;19.224;2024-01-11T04:15:01;100115.61;;;-11.58;92.40
75247;BME280;63844;50.042;19.224;2024-01-11T04:16:41;100114.26;;;-11.62;92.17
75247;BME280;63844;50.042;19.224;2024-01-11T04:18:18;100114.19;;;-11.63;92.07
75247;BME280;63844;50.042;19.224;2024-01-11T04:19:54;100114.23;;;-11.67;92.02
75247;BME280;63844;50.042;19.224;2024-01-11T04:21:31;100113.73;;;-11.70;91.90
75247;BME280;63844;50.042;19.224;2024-01-11T04:23:07;100111.06;;;-11.73;91.96
75247;BME280;63844;50.042;19.224;2024-01-11T04:24:44;100113.70;;;-11.75;92.07
75247;BME280;63844;50.042;19.224;2024-01-11T04:26:21;100111.56;;;-11.77;92.11
75247;BME280;63844;50.042;19.224;2024-01-11T04:27:57;100112.83;;;-11.80;92.09
75247;BME280;63844;50.042;19.224;2024-01-11T04:29:34;100110.96;;;-11.79;92.20
75247;BME280;63844;50.042;19.224;2024-01-11T04:31:10;100103.98;;;-11.71;93.28
75247;BME280;63844;50.042;19.224;2024-01-11T04:32:47;100095.33;;;-11.65;93.31
75247;BME280;63844;50.042;19.224;2024-01-11T04:34:23;100090.14;;;-11.63;93.35
75247;BME280;63844;50.042;19.224;2024-01-11T04:35:59;100090.25;;;-11.64;92.94
75247;BME280;63844;50.042;19.224;2024-01-11T04:37:36;100091.25;;;-11.64;92.90
75247;BME280;63844;50.042;19.224;2024-01-11T04:39:12;100084.50;;;-11.62;93.11
75247;BME280;63844;50.042;19.224;2024-01-11T04:40:49;100072.40;;;-11.62;92.80
75247;BME280;63844;50.042;19.224;2024-01-11T04:42:27;100065.56;;;-11.58;92.92
75247;BME280;63844;50.042;19.224;2024-01-11T04:44:04;100065.40;;;-11.44;93.73
75247;BME280;63844;50.042;19.224;2024-01-11T04:45:41;100066.30;;;-11.26;94.24
75247;BME280;63844;50.042;19.224;2024-01-11T04:47:17;100070.57;;;-11.03;94.99
75247;BME280;63844;50.042;19.224;2024-01-11T04:48:53;100074.80;;;-10.91;94.99
75247;BME280;63844;50.042;19.224;2024-01-11T04:50:30;100071.77;;;-10.85;94.88
75247;BME280;63844;50.042;19.224;2024-01-11T04:52:06;100072.65;;;-10.80;94.54
75247;BME280;63844;50.042;19.224;2024-01-11T04:53:45;100078.03;;;-10.77;94.29
75247;BME280;63844;50.042;19.224;2024-01-11T04:55:22;100077.15;;;-10.77;94.17
75247;BME280;63844;50.042;19.224;2024-01-11T04:56:58;100081.52;;;-10.75;93.90
75247;BME280;63844;50.042;19.224;2024-01-11T04:58:35;100082.19;;;-10.76;93.55
75247;BME280;63844;50.042;19.224;2024-01-11T05:00:14;100077.66;;;-10.78;93.23
75247;BME280;63844;50.042;19.224;2024-01-11T05:01:51;100070.21;;;-10.80;92.80
75247;BME280;63844;50.042;19.224;2024-01-11T05:03:28;100067.71;;;-10.83;92.57
75247;BME280;63844;50.042;19.224;2024-01-11T05:05:04;100065.60;;;-10.85;92.92
75247;BME280;63844;50.042;19.224;2024-01-11T05:06:41;100068.45;;;-10.86;93.13
75247;BME280;63844;50.042;19.224;2024-01-11T05:08:17;100083.38;;;-10.90;93.34
75247;BME280;63844;50.042;19.224;2024-01-11T05:09:54;100088.24;;;-10.96;93.08
75247;BME280;63844;50.042;19.224;2024-01-11T05:11:30;100089.99;;;-11.05;92.78
75247;BME280;63844;50.042;19.224;2024-01-11T05:13:06;100090.98;;;-11.15;92.81
75247;BME280;63844;50.042;19.224;2024-01-11T05:14:43;100089.41;;;-11.24;91.91
75247;BME280;63844;50.042;19.224;2024-01-11T05:16:23;100082.03;;;-11.30;91.60
75247;BME280;63844;50.042;19.224;2024-01-11T05:18:00;100085.42;;;-11.35;91.45
75247;BME280;63844;50.042;19.224;2024-01-11T05:19:36;100083.70;;;-11.39;91.35
75247;BME280;63844;50.042;19.224;2024-01-11T05:21:13;100085.83;;;-11.42;91.64
75247;BME280;63844;50.042;19.224;2024-01-11T05:22:49;100081.55;;;-11.46;91.70
75247;BME280;63844;50.042;19.224;2024-01-11T05:24:26;100081.48;;;-11.48;92.03
75247;BME280;63844;50.042;19.224;2024-01-11T05:26:02;100079.69;;;-11.50;91.79
75247;BME280;63844;50.042;19.224;2024-01-11T05:27:39;100075.34;;;-11.53;92.20
75247;BME280;63844;50.042;19.224;2024-01-11T05:29:15;100064.04;;;-11.54;92.31
75247;BME280;63844;50.042;19.224;2024-01-11T05:30:51;100054.36;;;-11.57;92.42
75247;BME280;63844;50.042;19.224;2024-01-11T05:32:28;100048.91;;;-11.56;92.88
75247;BME280;63844;50.042;19.224;2024-01-11T05:34:04;100046.28;;;-11.49;93.20
75247;BME280;63844;50.042;19.224;2024-01-11T05:35:41;100044.28;;;-11.34;93.97
75247;BME280;63844;50.042;19.224;2024-01-11T05:37:17;100044.52;;;-11.18;94.69
75247;BME280;63844;50.042;19.224;2024-01-11T05:38:54;100031.52;;;-11.05;95.02
75247;BME280;63844;50.042;19.224;2024-01-11T05:40:30;100020.39;;;-10.92;95.05
75247;BME280;63844;50.042;19.224;2024-01-11T05:42:06;100012.12;;;-10.74;95.13
75247;BME280;63844;50.042;19.224;2024-01-11T05:43:43;100013.40;;;-10.62;94.90
75247;BME280;63844;50.042;19.224;2024-01-11T05:45:20;100010.39;;;-10.50;95.05
75247;BME280;63844;50.042;19.224;2024-01-11T05:46:57;100006.56;;;-10.32;94.96
75247;BME280;63844;50.042;19.224;2024-01-11T05:48:34;100008.00;;;-10.24;94.70
75247;BME280;63844;50.042;19.224;2024-01-11T05:50:10;100007.00;;;-10.18;94.68
75247;BME280;63844;50.042;19.224;2024-01-11T05:51:48;100013.88;;;-10.12;94.50
75247;BME280;63844;50.042;19.224;2024-01-11T05:53:25;100015.19;;;-10.03;94.30
75247;BME280;63844;50.042;19.224;2024-01-11T05:55:03;100020.68;;;-9.98;94.08
75247;BME280;63844;50.042;19.224;2024-01-11T05:56:41;100022.80;;;-9.96;93.99
75247;BME280;63844;50.042;19.224;2024-01-11T05:58:17;100020.42;;;-9.96;93.83
75247;BME280;63844;50.042;19.224;2024-01-11T05:59:54;100018.50;;;-9.97;93.65
75247;BME280;63844;50.042;19.224;2024-01-11T06:01:30;100020.18;;;-9.98;93.68
75247;BME280;63844;50.042;19.224;2024-01-11T06:03:06;100027.84;;;-9.99;93.72
75247;BME280;63844;50.042;19.224;2024-01-11T06:04:43;100027.39;;;-10.02;93.51
75247;BME280;63844;50.042;19.224;2024-01-11T06:06:19;100032.98;;;-10.04;93.54
75247;BME280;63844;50.042;19.224;2024-01-11T06:07:56;100034.09;;;-10.12;93.42
75247;BME280;63844;50.042;19.224;2024-01-11T06:09:32;100034.97;;;-10.16;93.24
75247;BME280;63844;50.042;19.224;2024-01-11T06:11:09;100027.61;;;-10.22;93.12
75247;BME280;63844;50.042;19.224;2024-01-11T06:12:45;100023.09;;;-10.29;92.39
75247;BME280;63844;50.042;19.224;2024-01-11T06:14:22;100016.55;;;-10.35;92.00
75247;BME280;63844;50.042;19.224;2024-01-11T06:15:58;100016.27;;;-10.39;92.19
75247;BME280;63844;50.042;19.224;2024-01-11T06:17:35;100015.60;;;-10.43;92.77
75247;BME280;63844;50.042;19.224;2024-01-11T06:19:12;100026.05;;;-10.48;92.96
75247;BME280;63844;50.042;19.224;2024-01-11T06:20:48;100034.27;;;-10.52;93.40
75247;BME280;63844;50.042;19.224;2024-01-11T06:22:25;100040.48;;;-10.61;93.10
75247;BME280;63844;50.042;19.224;2024-01-11T06:24:01;100043.52;;;-10.67;92.76
75247;BME280;63844;50.042;19.224;2024-01-11T06:25:39;100039.30;;;-10.75;91.96
75247;BME280;63844;50.042;19.224;2024-01-11T06:27:16;100031.64;;;-10.78;91.78
75247;BME280;63844;50.042;19.224;2024-01-11T06:28:52;100034.61;;;-10.81;92.22
75247;BME280;63844;50.042;19.224;2024-01-11T06:30:29;100035.52;;;-10.85;92.61
75247;BME280;63844;50.042;19.224;2024-01-11T06:32:07;100036.76;;;-10.88;92.66
75247;BME280;63844;50.042;19.224;2024-01-11T06:33:44;100037.66;;;-10.91;92.37
75247;BME280;63844;50.042;19.224;2024-01-11T06:35:20;100035.36;;;-10.94;92.02
75247;BME280;63844;50.042;19.224;2024-01-11T06:36:57;100032.34;;;-10.97;91.85
75247;BME280;63844;50.042;19.224;2024-01-11T06:38:33;100030.55;;;-10.99;92.21
75247;BME280;63844;50.042;19.224;2024-01-11T06:40:10;100031.77;;;-11.03;92.49
75247;BME280;63844;50.042;19.224;2024-01-11T06:41:47;100035.80;;;-11.05;92.67
75247;BME280;63844;50.042;19.224;2024-01-11T06:43:23;100037.23;;;-11.08;92.43
75247;BME280;63844;50.042;19.224;2024-01-11T06:44:59;100031.38;;;-11.10;92.19
75247;BME280;63844;50.042;19.224;2024-01-11T06:46:36;100017.76;;;-11.12;92.20
75247;BME280;63844;50.042;19.224;2024-01-11T06:48:15;100014.17;;;-11.13;92.13
75247;BME280;63844;50.042;19.224;2024-01-11T06:49:53;100008.61;;;-11.10;92.20
75247;BME280;63844;50.042;19.224;2024-01-11T06:51:29;100006.65;;;-11.08;93.07
75247;BME280;63844;50.042;19.224;2024-01-11T06:53:06;99997.23;;;-11.09;92.74
75247;BME280;63844;50.042;19.224;2024-01-11T06:54:42;99990.98;;;-11.06;92.82
75247;BME280;63844;50.042;19.224;2024-01-11T06:56:19;99982.00;;;-10.99;93.52
75247;BME280;63844;50.042;19.224;2024-01-11T06:57:57;99977.86;;;-10.91;94.11
75247;BME280;63844;50.042;19.224;2024-01-11T06:59:34;99977.92;;;-10.74;94.77
75247;BME280;63844;50.042;19.224;2024-01-11T07:01:10;99969.27;;;-10.57;95.49
75247;BME280;63844;50.042;19.224;2024-01-11T07:02:47;99966.39;;;-10.41;95.90
75247;BME280;63844;50.042;19.224;2024-01-11T07:04:23;99958.84;;;-10.26;95.85
75247;BME280;63844;50.042;19.224;2024-01-11T07:06:00;99944.98;;;-10.10;95.70
75247;BME280;63844;50.042;19.224;2024-01-11T07:07:37;99940.20;;;-9.93;95.61
75247;BME280;63844;50.042;19.224;2024-01-11T07:09:14;99935.34;;;-9.78;95.32
75247;BME280;63844;50.042;19.224;2024-01-11T07:10:50;99934.07;;;-9.69;94.80
75247;BME280;63844;50.042;19.224;2024-01-11T07:12:27;99929.36;;;-9.60;94.89
75247;BME280;63844;50.042;19.224;2024-01-11T07:14:03;99929.03;;;-9.48;94.57
75247;BME280;63844;50.042;19.224;2024-01-11T07:15:40;99928.84;;;-9.38;94.37
75247;BME280;63844;50.042;19.224;2024-01-11T07:17:17;99923.17;;;-9.25;94.20
75247;BME280;63844;50.042;19.224;2024-01-11T07:18:53;99927.81;;;-9.13;93.67
75247;BME280;63844;50.042;19.224;2024-01-11T07:20:30;99925.13;;;-9.04;93.44
75247;BME280;63844;50.042;19.224;2024-01-11T07:22:06;99923.41;;;-8.99;93.27
75247;BME280;63844;50.042;19.224;2024-01-11T07:23:42;99927.96;;;-8.89;92.86
75247;BME280;63844;50.042;19.224;2024-01-11T07:25:19;99929.39;;;-8.79;92.72
75247;BME280;63844;50.042;19.224;2024-01-11T07:26:55;99932.45;;;-8.74;92.21
75247;BME280;63844;50.042;19.224;2024-01-11T07:28:31;99934.77;;;-8.71;92.21
75247;BME280;63844;50.042;19.224;2024-01-11T07:30:10;99926.61;;;-8.68;92.20
75247;BME280;63844;50.042;19.224;2024-01-11T07:31:47;99925.88;;;-8.64;92.24
75247;BME280;63844;50.042;19.224;2024-01-11T07:33:23;99919.27;;;-8.60;92.05
75247;BME280;63844;50.042;19.224;2024-01-11T07:35:00;99909.76;;;-8.56;92.20
75247;BME280;63844;50.042;19.224;2024-01-11T07:36:36;99903.19;;;-8.52;91.88
75247;BME280;63844;50.042;19.224;2024-01-11T07:38:12;99898.91;;;-8.44;91.97
75247;BME280;63844;50.042;19.224;2024-01-11T07:39:49;99898.97;;;-8.33;91.98
75247;BME280;63844;50.042;19.224;2024-01-11T07:41:25;99902.00;;;-8.22;92.05
75247;BME280;63844;50.042;19.224;2024-01-11T07:43:02;99903.55;;;-8.14;91.75
75247;BME280;63844;50.042;19.224;2024-01-11T07:44:40;99914.08;;;-8.04;91.28
75247;BME280;63844;50.042;19.224;2024-01-11T07:46:16;99913.92;;;-7.96;91.70
75247;BME280;63844;50.042;19.224;2024-01-11T07:47:52;99916.92;;;-7.93;91.31
75247;BME280;63844;50.042;19.224;2024-01-11T07:49:29;99911.38;;;-7.88;90.92
75247;BME280;63844;50.042;19.224;2024-01-11T07:51:06;99908.89;;;-7.83;91.06
75247;BME280;63844;50.042;19.224;2024-01-11T07:52:42;99908.91;;;-7.74;91.00
75247;BME280;63844;50.042;19.224;2024-01-11T07:54:19;99920.02;;;-7.69;91.13
75247;BME280;63844;50.042;19.224;2024-01-11T07:55:55;99921.27;;;-7.59;90.83
75247;BME280;63844;50.042;19.224;2024-01-11T07:57:32;99927.61;;;-7.52;90.46
75247;BME280;63844;50.042;19.224;2024-01-11T07:59:09;99924.03;;;-7.43;90.18
75247;BME280;63844;50.042;19.224;2024-01-11T08:00:49;99929.44;;;-7.31;89.52
75247;BME280;63844;50.042;19.224;2024-01-11T08:02:26;99931.41;;;-7.18;89.23
75247;BME280;63844;50.042;19.224;2024-01-11T08:04:03;99931.33;;;-7.06;89.15
75247;BME280;63844;50.042;19.224;2024-01-11T08:05:40;99934.90;;;-6.90;88.95
75247;BME280;63844;50.042;19.224;2024-01-11T08:07:17;99929.66;;;-6.76;89.66
75247;BME280;63844;50.042;19.224;2024-01-11T08:08:53;99923.73;;;-6.62;89.94
75247;BME280;63844;50.042;19.224;2024-01-11T08:10:30;99915.70;;;-6.48;90.09
75247;BME280;63844;50.042;19.224;2024-01-11T08:12:10;99910.23;;;-6.36;90.36
75247;BME280;63844;50.042;19.224;2024-01-11T08:13:47;99908.84;;;-6.26;90.05
75247;BME280;63844;50.042;19.224;2024-01-11T08:15:23;99904.50;;;-6.17;89.43